VJA20X KDWH-KGLS
Flight info
| Callsign | VJA20X |
|---|---|
| Flight time | 0h 19m |
| Altitude | 11000 |
| Route | MHF |
| Aircraft | GLF6/M-SBDE2E3FGHIJ4J5M1RWXY/LB1D1 |
Departure
| Time | 2026-04-26 16:46 |
|---|---|
| Airport | David Wayne Hooks Memorial Airport (KDWH) |
Arrival
| Time | 2026-04-26 17:06 |
|---|---|
| Airport | Scholes International At Galveston Airport (KGLS) |
| Time | Latitude | Longitude | Altitude | Speed | Heading |
|---|---|---|---|---|---|
| 2026-04-26 16:30 | 30.07025 | -95.55280 | 146 ft | 0 kts | 180° |
| 2026-04-26 16:43 | 30.07018 | -95.55280 | 146 ft | 2 kts | 184° |
| 2026-04-26 16:43 | 30.06996 | -95.55307 | 146 ft | 7 kts | 239° |
| 2026-04-26 16:44 | 30.06991 | -95.55367 | 146 ft | 8 kts | 270° |
| 2026-04-26 16:44 | 30.06984 | -95.55424 | 145 ft | 6 kts | 219° |
| 2026-04-26 16:44 | 30.06966 | -95.55428 | 145 ft | 0 kts | 170° |
| 2026-04-26 16:45 | 30.06965 | -95.55427 | 145 ft | 2 kts | 171° |
| 2026-04-26 16:45 | 30.06825 | -95.55407 | 144 ft | 48 kts | 173° |
| 2026-04-26 16:45 | 30.06273 | -95.55328 | 146 ft | 110 kts | 173° |
| 2026-04-26 16:46 | 30.05370 | -95.55197 | 271 ft | 143 kts | 172° |
| 2026-04-26 16:46 | 30.04338 | -95.55040 | 818 ft | 157 kts | 172° |
| 2026-04-26 16:46 | 30.03226 | -95.54876 | 1554 ft | 163 kts | 172° |
| 2026-04-26 16:46 | 30.02092 | -95.54666 | 2352 ft | 169 kts | 170° |
| 2026-04-26 16:47 | 30.00939 | -95.54304 | 3051 ft | 181 kts | 151° |
| 2026-04-26 16:47 | 30.00062 | -95.53166 | 3559 ft | 197 kts | 122° |
| 2026-04-26 16:47 | 29.99383 | -95.51683 | 3873 ft | 226 kts | 117° |
| 2026-04-26 16:47 | 29.98823 | -95.49827 | 3965 ft | 253 kts | 109° |
| 2026-04-26 16:48 | 29.98221 | -95.48028 | 4383 ft | 234 kts | 120° |
| 2026-04-26 16:48 | 29.97309 | -95.46475 | 4398 ft | 235 kts | 130° |
| 2026-04-26 16:48 | 29.96518 | -95.45288 | 4512 ft | 233 kts | 128° |
| 2026-04-26 16:48 | 29.95600 | -95.43767 | 4550 ft | 236 kts | 126° |
| 2026-04-26 16:49 | 29.94711 | -95.42219 | 4800 ft | 225 kts | 126° |
| 2026-04-26 16:49 | 29.93827 | -95.40721 | 4815 ft | 228 kts | 127° |
| 2026-04-26 16:49 | 29.92934 | -95.39212 | 4866 ft | 227 kts | 126° |
| 2026-04-26 16:49 | 29.92048 | -95.37706 | 4913 ft | 227 kts | 126° |
| 2026-04-26 16:50 | 29.91158 | -95.36203 | 5009 ft | 227 kts | 127° |
| 2026-04-26 16:50 | 29.90254 | -95.34674 | 5014 ft | 236 kts | 126° |
| 2026-04-26 16:50 | 29.89313 | -95.33072 | 5011 ft | 246 kts | 126° |
| 2026-04-26 16:50 | 29.88328 | -95.31414 | 5011 ft | 255 kts | 127° |
| 2026-04-26 16:51 | 29.87313 | -95.29695 | 5010 ft | 263 kts | 126° |
| 2026-04-26 16:51 | 29.86276 | -95.27937 | 5000 ft | 267 kts | 126° |
| 2026-04-26 16:51 | 29.85246 | -95.26185 | 5002 ft | 262 kts | 126° |
| 2026-04-26 16:51 | 29.84223 | -95.24458 | 5002 ft | 260 kts | 126° |
| 2026-04-26 16:52 | 29.82999 | -95.22968 | 4956 ft | 255 kts | 149° |
| 2026-04-26 16:52 | 29.81943 | -95.22437 | 4973 ft | 247 kts | 163° |
| 2026-04-26 16:52 | 29.79829 | -95.21677 | 4978 ft | 230 kts | 159° |
| 2026-04-26 16:52 | 29.78410 | -95.20926 | 4969 ft | 218 kts | 155° |
| 2026-04-26 16:53 | 29.77086 | -95.20183 | 4968 ft | 206 kts | 156° |
| 2026-04-26 16:53 | 29.75831 | -95.19513 | 4964 ft | 193 kts | 157° |
| 2026-04-26 16:53 | 29.74656 | -95.18884 | 4957 ft | 178 kts | 157° |
| 2026-04-26 16:53 | 29.73583 | -95.18307 | 4963 ft | 168 kts | 157° |
| 2026-04-26 16:54 | 29.72541 | -95.17749 | 4960 ft | 162 kts | 157° |
| 2026-04-26 16:54 | 29.71540 | -95.17211 | 4960 ft | 155 kts | 157° |
| 2026-04-26 16:54 | 29.70567 | -95.16689 | 4879 ft | 157 kts | 157° |
| 2026-04-26 16:54 | 29.69541 | -95.16142 | 4682 ft | 171 kts | 157° |
| 2026-04-26 16:55 | 29.68398 | -95.15528 | 4425 ft | 190 kts | 156° |
| 2026-04-26 16:55 | 29.67201 | -95.14886 | 4242 ft | 205 kts | 157° |
| 2026-04-26 16:55 | 29.65845 | -95.14161 | 4033 ft | 224 kts | 156° |
| 2026-04-26 16:55 | 29.64367 | -95.13368 | 3762 ft | 244 kts | 156° |
| 2026-04-26 16:56 | 29.61080 | -95.11610 | 3180 ft | 271 kts | 157° |
| 2026-04-26 16:56 | 29.59378 | -95.10695 | 3002 ft | 268 kts | 156° |
| 2026-04-26 16:56 | 29.57739 | -95.09818 | 2998 ft | 251 kts | 156° |
| 2026-04-26 16:57 | 29.56204 | -95.08997 | 2973 ft | 236 kts | 157° |
| 2026-04-26 16:57 | 29.54768 | -95.08226 | 2973 ft | 221 kts | 156° |
| 2026-04-26 16:57 | 29.52178 | -95.06845 | 2962 ft | 190 kts | 156° |
| 2026-04-26 16:58 | 29.51013 | -95.06225 | 2982 ft | 179 kts | 158° |
| 2026-04-26 16:58 | 29.50277 | -95.05836 | 2970 ft | 172 kts | 156° |
| 2026-04-26 16:58 | 29.47886 | -95.04556 | 2974 ft | 153 kts | 158° |
| 2026-04-26 16:59 | 29.46941 | -95.04047 | 2965 ft | 145 kts | 158° |
| 2026-04-26 16:59 | 29.45242 | -95.03141 | 2876 ft | 127 kts | 158° |
| 2026-04-26 17:00 | 29.43651 | -95.02291 | 2900 ft | 129 kts | 158° |
| 2026-04-26 17:00 | 29.42126 | -95.01012 | 3149 ft | 142 kts | 141° |
| 2026-04-26 17:00 | 29.41353 | -95.00315 | 3150 ft | 144 kts | 146° |
| 2026-04-26 17:01 | 29.40550 | -94.99545 | 3018 ft | 155 kts | 143° |
| 2026-04-26 17:01 | 29.39694 | -94.98723 | 2898 ft | 165 kts | 143° |
| 2026-04-26 17:01 | 29.38787 | -94.97857 | 2733 ft | 176 kts | 142° |
| 2026-04-26 17:01 | 29.37809 | -94.96922 | 2483 ft | 190 kts | 142° |
| 2026-04-26 17:02 | 29.36761 | -94.95921 | 2210 ft | 201 kts | 142° |
| 2026-04-26 17:02 | 29.35730 | -94.94931 | 2055 ft | 180 kts | 142° |
| 2026-04-26 17:02 | 29.34825 | -94.94064 | 1878 ft | 160 kts | 143° |
| 2026-04-26 17:02 | 29.34015 | -94.93288 | 1739 ft | 145 kts | 142° |
| 2026-04-26 17:03 | 29.33270 | -94.92585 | 1557 ft | 133 kts | 144° |
| 2026-04-26 17:03 | 29.32595 | -94.91926 | 1392 ft | 121 kts | 141° |
| 2026-04-26 17:03 | 29.31980 | -94.91295 | 1170 ft | 116 kts | 143° |
| 2026-04-26 17:03 | 29.31370 | -94.90704 | 986 ft | 113 kts | 143° |
| 2026-04-26 17:04 | 29.30792 | -94.90145 | 862 ft | 107 kts | 145° |
| 2026-04-26 17:04 | 29.30189 | -94.89599 | 752 ft | 114 kts | 142° |
| 2026-04-26 17:04 | 29.29553 | -94.89019 | 703 ft | 121 kts | 138° |
| 2026-04-26 17:04 | 29.28882 | -94.88391 | 556 ft | 126 kts | 139° |
| 2026-04-26 17:05 | 29.28238 | -94.87764 | 355 ft | 118 kts | 141° |
| 2026-04-26 17:05 | 29.27615 | -94.87175 | 172 ft | 116 kts | 141° |
| 2026-04-26 17:05 | 29.27001 | -94.86601 | 13 ft | 107 kts | 141° |
| 2026-04-26 17:05 | 29.26550 | -94.86175 | 6 ft | 60 kts | 140° |
| 2026-04-26 17:06 | 29.26339 | -94.85972 | 7 ft | 23 kts | 139° |
| 2026-04-26 17:06 | 29.26187 | -94.85824 | 10 ft | 28 kts | 140° |
| 2026-04-26 17:06 | 29.26051 | -94.85692 | 10 ft | 23 kts | 139° |
| 2026-04-26 17:06 | 29.25950 | -94.85598 | 11 ft | 15 kts | 141° |
| 2026-04-26 17:07 | 29.25951 | -94.85552 | 9 ft | 6 kts | 30° |
| 2026-04-26 17:07 | 29.25988 | -94.85550 | 10 ft | 4 kts | 0° |
| 2026-04-26 17:07 | 29.26012 | -94.85550 | 12 ft | 3 kts | 0° |
| 2026-04-26 17:07 | 29.26024 | -94.85550 | 11 ft | 1 kts | 0° |
| 2026-04-26 17:08 | 29.26061 | -94.85550 | 12 ft | 10 kts | 0° |
| 2026-04-26 17:08 | 29.26134 | -94.85589 | 12 ft | 12 kts | 319° |
| 2026-04-26 17:08 | 29.26201 | -94.85653 | 12 ft | 13 kts | 321° |
| 2026-04-26 17:08 | 29.26267 | -94.85715 | 13 ft | 12 kts | 320° |
| 2026-04-26 17:09 | 29.26335 | -94.85771 | 13 ft | 13 kts | 337° |
| 2026-04-26 17:09 | 29.26364 | -94.85779 | 12 ft | 13 kts | 353° |
| 2026-04-26 17:09 | 29.26515 | -94.85748 | 10 ft | 14 kts | 0° |
| 2026-04-26 17:09 | 29.26610 | -94.85747 | 11 ft | 13 kts | 1° |
| 2026-04-26 17:10 | 29.26697 | -94.85745 | 12 ft | 12 kts | 1° |
| 2026-04-26 17:10 | 29.26741 | -94.85730 | 12 ft | 3 kts | 103° |
| 2026-04-26 17:10 | 29.26722 | -94.85700 | 12 ft | 6 kts | 122° |
| 2026-04-26 17:10 | 29.26730 | -94.85668 | 12 ft | 0 kts | 16° |
| 2026-04-26 17:11 | 29.26738 | -94.85668 | 13 ft | 5 kts | 5° |
| 2026-04-26 17:11 | 29.26751 | -94.85667 | 12 ft | 0 kts | 3° |
| 2026-04-26 17:11 | 29.26752 | -94.85667 | 12 ft | 1 kts | 4° |
| 2026-04-26 17:12 | 29.26754 | -94.85666 | 12 ft | 0 kts | 4° |